sensor_id;sensor_type;location;lat;lon;timestamp;P1;durP1;ratioP1;P2;durP2;ratioP2
51664;SDS011;37751;52.408;12.536;2024-01-15T00:01:09;17.40;;;10.27;;
51664;SDS011;37751;52.408;12.536;2024-01-15T00:04:06;14.90;;;8.57;;
51664;SDS011;37751;52.408;12.536;2024-01-15T00:07:17;17.67;;;9.73;;
51664;SDS011;37751;52.408;12.536;2024-01-15T00:09:48;15.67;;;9.77;;
51664;SDS011;37751;52.408;12.536;2024-01-15T00:12:25;15.17;;;9.50;;
51664;SDS011;37751;52.408;12.536;2024-01-15T00:15:01;21.20;;;9.90;;
51664;SDS011;37751;52.408;12.536;2024-01-15T00:17:53;17.53;;;9.30;;
51664;SDS011;37751;52.408;12.536;2024-01-15T00:20:26;16.80;;;9.83;;
51664;SDS011;37751;52.408;12.536;2024-01-15T00:23:17;18.40;;;9.30;;
51664;SDS011;37751;52.408;12.536;2024-01-15T00:25:53;20.27;;;10.97;;
51664;SDS011;37751;52.408;12.536;2024-01-15T00:28:27;19.03;;;10.73;;
51664;SDS011;37751;52.408;12.536;2024-01-15T00:31:14;18.77;;;10.20;;
51664;SDS011;37751;52.408;12.536;2024-01-15T00:33:46;17.13;;;11.10;;
51664;SDS011;37751;52.408;12.536;2024-01-15T00:36:29;13.27;;;7.07;;
51664;SDS011;37751;52.408;12.536;2024-01-15T00:39:21;22.13;;;11.33;;
51664;SDS011;37751;52.408;12.536;2024-01-15T00:41:54;19.07;;;9.33;;
51664;SDS011;37751;52.408;12.536;2024-01-15T00:44:25;16.07;;;9.53;;
51664;SDS011;37751;52.408;12.536;2024-01-15T00:47:10;16.57;;;9.37;;
51664;SDS011;37751;52.408;12.536;2024-01-15T00:49:44;17.60;;;9.87;;
51664;SDS011;37751;52.408;12.536;2024-01-15T00:52:45;15.33;;;9.10;;
51664;SDS011;37751;52.408;12.536;2024-01-15T00:55:36;21.83;;;10.20;;
51664;SDS011;37751;52.408;12.536;2024-01-15T00:58:27;17.90;;;9.57;;
51664;SDS011;37751;52.408;12.536;2024-01-15T01:01:19;22.93;;;12.90;;
51664;SDS011;37751;52.408;12.536;2024-01-15T01:04:09;17.90;;;9.83;;
51664;SDS011;37751;52.408;12.536;2024-01-15T01:07:00;21.97;;;12.47;;
51664;SDS011;37751;52.408;12.536;2024-01-15T01:09:51;24.43;;;13.30;;
51664;SDS011;37751;52.408;12.536;2024-01-15T01:12:44;18.20;;;10.80;;
51664;SDS011;37751;52.408;12.536;2024-01-15T01:15:20;23.33;;;12.73;;
51664;SDS011;37751;52.408;12.536;2024-01-15T01:17:54;24.37;;;13.17;;
51664;SDS011;37751;52.408;12.536;2024-01-15T01:20:47;24.30;;;13.07;;
51664;SDS011;37751;52.408;12.536;2024-01-15T01:23:21;26.27;;;13.33;;
51664;SDS011;37751;52.408;12.536;2024-01-15T01:26:20;16.87;;;10.07;;
51664;SDS011;37751;52.408;12.536;2024-01-15T01:28:51;11.43;;;6.23;;
51664;SDS011;37751;52.408;12.536;2024-01-15T01:31:25;15.27;;;8.37;;
51664;SDS011;37751;52.408;12.536;2024-01-15T01:33:59;13.57;;;8.67;;
51664;SDS011;37751;52.408;12.536;2024-01-15T01:36:39;12.83;;;7.63;;
51664;SDS011;37751;52.408;12.536;2024-01-15T01:39:30;15.77;;;9.47;;
51664;SDS011;37751;52.408;12.536;2024-01-15T01:42:21;11.90;;;6.87;;
51664;SDS011;37751;52.408;12.536;2024-01-15T01:45:04;18.53;;;7.97;;
51664;SDS011;37751;52.408;12.536;2024-01-15T01:48:16;14.00;;;7.67;;
51664;SDS011;37751;52.408;12.536;2024-01-15T01:50:47;11.40;;;6.60;;
51664;SDS011;37751;52.408;12.536;2024-01-15T01:53:43;9.93;;;5.73;;
51664;SDS011;37751;52.408;12.536;2024-01-15T01:56:28;16.93;;;7.43;;
51664;SDS011;37751;52.408;12.536;2024-01-15T01:59:20;15.23;;;7.93;;
51664;SDS011;37751;52.408;12.536;2024-01-15T02:02:32;13.53;;;7.33;;
51664;SDS011;37751;52.408;12.536;2024-01-15T02:05:24;15.30;;;7.03;;
51664;SDS011;37751;52.408;12.536;2024-01-15T02:07:59;18.10;;;9.10;;
51664;SDS011;37751;52.408;12.536;2024-01-15T02:11:13;15.60;;;7.43;;
51664;SDS011;37751;52.408;12.536;2024-01-15T02:13:55;11.07;;;6.33;;
51664;SDS011;37751;52.408;12.536;2024-01-15T02:16:26;16.40;;;8.30;;
51664;SDS011;37751;52.408;12.536;2024-01-15T02:19:00;15.87;;;8.50;;
51664;SDS011;37751;52.408;12.536;2024-01-15T02:21:38;17.17;;;9.13;;
51664;SDS011;37751;52.408;12.536;2024-01-15T02:24:12;15.63;;;6.40;;
51664;SDS011;37751;52.408;12.536;2024-01-15T02:26:43;17.57;;;7.93;;
51664;SDS011;37751;52.408;12.536;2024-01-15T02:29:14;16.67;;;7.73;;
51664;SDS011;37751;52.408;12.536;2024-01-15T02:31:45;18.20;;;7.83;;
51664;SDS011;37751;52.408;12.536;2024-01-15T02:34:16;15.47;;;6.93;;
51664;SDS011;37751;52.408;12.536;2024-01-15T02:36:47;17.23;;;6.70;;
51664;SDS011;37751;52.408;12.536;2024-01-15T02:39:20;15.27;;;6.37;;
51664;SDS011;37751;52.408;12.536;2024-01-15T02:41:51;15.40;;;6.83;;
51664;SDS011;37751;52.408;12.536;2024-01-15T02:44:23;14.13;;;6.50;;
51664;SDS011;37751;52.408;12.536;2024-01-15T02:46:54;16.63;;;6.27;;
51664;SDS011;37751;52.408;12.536;2024-01-15T02:49:24;10.40;;;6.27;;
51664;SDS011;37751;52.408;12.536;2024-01-15T02:51:55;12.40;;;5.90;;
51664;SDS011;37751;52.408;12.536;2024-01-15T02:54:29;14.97;;;7.10;;
51664;SDS011;37751;52.408;12.536;2024-01-15T02:57:00;14.27;;;5.83;;
51664;SDS011;37751;52.408;12.536;2024-01-15T02:59:30;13.07;;;5.50;;
51664;SDS011;37751;52.408;12.536;2024-01-15T03:02:01;12.20;;;5.67;;
51664;SDS011;37751;52.408;12.536;2024-01-15T03:04:32;12.43;;;5.90;;
51664;SDS011;37751;52.408;12.536;2024-01-15T03:07:03;15.03;;;4.57;;
51664;SDS011;37751;52.408;12.536;2024-01-15T03:09:36;10.63;;;4.13;;
51664;SDS011;37751;52.408;12.536;2024-01-15T03:12:07;9.03;;;4.93;;
51664;SDS011;37751;52.408;12.536;2024-01-15T03:14:38;12.43;;;5.60;;
51664;SDS011;37751;52.408;12.536;2024-01-15T03:17:09;11.50;;;5.47;;
51664;SDS011;37751;52.408;12.536;2024-01-15T03:19:39;12.57;;;5.13;;
51664;SDS011;37751;52.408;12.536;2024-01-15T03:22:10;15.77;;;5.07;;
51664;SDS011;37751;52.408;12.536;2024-01-15T03:24:44;9.47;;;4.37;;
51664;SDS011;37751;52.408;12.536;2024-01-15T03:27:15;7.90;;;4.40;;
51664;SDS011;37751;52.408;12.536;2024-01-15T03:29:46;7.87;;;3.93;;
51664;SDS011;37751;52.408;12.536;2024-01-15T03:32:16;8.23;;;4.30;;
51664;SDS011;37751;52.408;12.536;2024-01-15T03:34:47;10.53;;;5.40;;
51664;SDS011;37751;52.408;12.536;2024-01-15T03:37:19;14.33;;;4.87;;
51664;SDS011;37751;52.408;12.536;2024-01-15T03:39:53;11.90;;;5.00;;
51664;SDS011;37751;52.408;12.536;2024-01-15T03:42:24;14.63;;;4.67;;
51664;SDS011;37751;52.408;12.536;2024-01-15T03:44:55;14.70;;;4.53;;
51664;SDS011;37751;52.408;12.536;2024-01-15T03:47:26;12.70;;;3.80;;
51664;SDS011;37751;52.408;12.536;2024-01-15T03:49:56;10.80;;;3.77;;
51664;SDS011;37751;52.408;12.536;2024-01-15T03:52:27;14.93;;;4.07;;
51664;SDS011;37751;52.408;12.536;2024-01-15T03:55:01;16.03;;;4.10;;
51664;SDS011;37751;52.408;12.536;2024-01-15T03:57:32;14.13;;;3.40;;
51664;SDS011;37751;52.408;12.536;2024-01-15T04:00:03;9.53;;;3.20;;
51664;SDS011;37751;52.408;12.536;2024-01-15T04:02:35;9.77;;;2.33;;
51664;SDS011;37751;52.408;12.536;2024-01-15T04:05:06;10.67;;;3.50;;
51664;SDS011;37751;52.408;12.536;2024-01-15T04:07:37;8.07;;;3.37;;
51664;SDS011;37751;52.408;12.536;2024-01-15T04:10:10;12.23;;;3.33;;
51664;SDS011;37751;52.408;12.536;2024-01-15T04:12:41;10.63;;;2.93;;
51664;SDS011;37751;52.408;12.536;2024-01-15T04:15:13;13.50;;;3.63;;
51664;SDS011;37751;52.408;12.536;2024-01-15T04:17:44;12.33;;;3.40;;
51664;SDS011;37751;52.408;12.536;2024-01-15T04:20:15;17.47;;;4.00;;
51664;SDS011;37751;52.408;12.536;2024-01-15T04:22:49;13.10;;;3.33;;
51664;SDS011;37751;52.408;12.536;2024-01-15T04:25:22;7.70;;;2.40;;
51664;SDS011;37751;52.408;12.536;2024-01-15T04:27:53;8.83;;;2.80;;
51664;SDS011;37751;52.408;12.536;2024-01-15T04:30:24;6.63;;;2.50;;
51664;SDS011;37751;52.408;12.536;2024-01-15T04:32:55;12.17;;;2.80;;
51664;SDS011;37751;52.408;12.536;2024-01-15T04:35:25;6.43;;;1.63;;
51664;SDS011;37751;52.408;12.536;2024-01-15T04:37:56;9.97;;;2.50;;
51664;SDS011;37751;52.408;12.536;2024-01-15T04:40:30;11.27;;;2.87;;
51664;SDS011;37751;52.408;12.536;2024-01-15T04:43:00;8.33;;;2.30;;
51664;SDS011;37751;52.408;12.536;2024-01-15T04:45:31;11.00;;;2.23;;
51664;SDS011;37751;52.408;12.536;2024-01-15T04:48:02;6.20;;;2.57;;
51664;SDS011;37751;52.408;12.536;2024-01-15T04:50:33;9.13;;;2.27;;
51664;SDS011;37751;52.408;12.536;2024-01-15T04:53:04;8.57;;;2.07;;
51664;SDS011;37751;52.408;12.536;2024-01-15T04:55:41;10.93;;;2.53;;
51664;SDS011;37751;52.408;12.536;2024-01-15T04:58:13;7.43;;;1.80;;
51664;SDS011;37751;52.408;12.536;2024-01-15T05:00:43;6.83;;;1.50;;
51664;SDS011;37751;52.408;12.536;2024-01-15T05:03:14;7.77;;;1.83;;
51664;SDS011;37751;52.408;12.536;2024-01-15T05:05:45;13.73;;;2.20;;
51664;SDS011;37751;52.408;12.536;2024-01-15T05:08:16;10.90;;;2.57;;
51664;SDS011;37751;52.408;12.536;2024-01-15T05:10:49;11.73;;;1.77;;
51664;SDS011;37751;52.408;12.536;2024-01-15T05:13:20;6.27;;;1.80;;
51664;SDS011;37751;52.408;12.536;2024-01-15T05:15:51;8.50;;;2.07;;
51664;SDS011;37751;52.408;12.536;2024-01-15T05:18:21;9.47;;;2.03;;
51664;SDS011;37751;52.408;12.536;2024-01-15T05:20:52;7.70;;;2.07;;
51664;SDS011;37751;52.408;12.536;2024-01-15T05:23:23;4.33;;;1.80;;
51664;SDS011;37751;52.408;12.536;2024-01-15T05:25:56;10.37;;;3.00;;
51664;SDS011;37751;52.408;12.536;2024-01-15T05:28:27;7.97;;;2.00;;
51664;SDS011;37751;52.408;12.536;2024-01-15T05:30:58;8.77;;;2.00;;
51664;SDS011;37751;52.408;12.536;2024-01-15T05:33:30;11.60;;;2.60;;
51664;SDS011;37751;52.408;12.536;2024-01-15T05:36:01;4.90;;;1.60;;
51664;SDS011;37751;52.408;12.536;2024-01-15T05:38:32;13.60;;;2.40;;
51664;SDS011;37751;52.408;12.536;2024-01-15T05:41:06;5.43;;;1.57;;
51664;SDS011;37751;52.408;12.536;2024-01-15T05:43:37;9.23;;;1.83;;
51664;SDS011;37751;52.408;12.536;2024-01-15T05:46:07;8.07;;;2.37;;
51664;SDS011;37751;52.408;12.536;2024-01-15T05:48:38;11.93;;;2.07;;
51664;SDS011;37751;52.408;12.536;2024-01-15T05:51:09;16.90;;;2.37;;
51664;SDS011;37751;52.408;12.536;2024-01-15T05:53:40;14.70;;;2.50;;
51664;SDS011;37751;52.408;12.536;2024-01-15T05:56:15;12.97;;;1.80;;
51664;SDS011;37751;52.408;12.536;2024-01-15T05:58:46;5.87;;;1.37;;
51664;SDS011;37751;52.408;12.536;2024-01-15T06:01:17;16.33;;;1.90;;
51664;SDS011;37751;52.408;12.536;2024-01-15T06:03:48;18.00;;;1.90;;
51664;SDS011;37751;52.408;12.536;2024-01-15T06:06:18;6.27;;;1.60;;
51664;SDS011;37751;52.408;12.536;2024-01-15T06:08:49;13.17;;;1.43;;
51664;SDS011;37751;52.408;12.536;2024-01-15T06:11:23;8.03;;;1.30;;
51664;SDS011;37751;52.408;12.536;2024-01-15T06:14:00;10.37;;;1.90;;
51664;SDS011;37751;52.408;12.536;2024-01-15T06:16:31;5.73;;;1.20;;
51664;SDS011;37751;52.408;12.536;2024-01-15T06:19:01;7.20;;;1.77;;
51664;SDS011;37751;52.408;12.536;2024-01-15T06:21:35;8.83;;;2.07;;
51664;SDS011;37751;52.408;12.536;2024-01-15T06:24:11;6.10;;;1.50;;
51664;SDS011;37751;52.408;12.536;2024-01-15T06:26:45;5.67;;;1.20;;
51664;SDS011;37751;52.408;12.536;2024-01-15T06:29:16;9.60;;;2.23;;
51664;SDS011;37751;52.408;12.536;2024-01-15T06:31:51;7.13;;;1.30;;
51664;SDS011;37751;52.408;12.536;2024-01-15T06:34:22;8.50;;;1.77;;
51664;SDS011;37751;52.408;12.536;2024-01-15T06:36:53;4.40;;;1.30;;
51664;SDS011;37751;52.408;12.536;2024-01-15T06:39:24;11.63;;;1.80;;
51664;SDS011;37751;52.408;12.536;2024-01-15T06:41:57;10.10;;;1.83;;
51664;SDS011;37751;52.408;12.536;2024-01-15T06:44:28;11.17;;;1.80;;
51664;SDS011;37751;52.408;12.536;2024-01-15T06:46:59;8.47;;;1.63;;
51664;SDS011;37751;52.408;12.536;2024-01-15T06:49:29;6.53;;;1.90;;
51664;SDS011;37751;52.408;12.536;2024-01-15T06:52:01;20.03;;;2.20;;
51664;SDS011;37751;52.408;12.536;2024-01-15T06:54:31;11.70;;;1.67;;
51664;SDS011;37751;52.408;12.536;2024-01-15T06:57:05;14.03;;;2.03;;
51664;SDS011;37751;52.408;12.536;2024-01-15T06:59:36;7.70;;;2.10;;
51664;SDS011;37751;52.408;12.536;2024-01-15T07:02:08;12.30;;;2.17;;
51664;SDS011;37751;52.408;12.536;2024-01-15T07:04:39;16.43;;;1.93;;
51664;SDS011;37751;52.408;12.536;2024-01-15T07:07:10;11.43;;;1.87;;
51664;SDS011;37751;52.408;12.536;2024-01-15T07:09:41;11.77;;;1.83;;
51664;SDS011;37751;52.408;12.536;2024-01-15T07:12:15;14.80;;;2.07;;
51664;SDS011;37751;52.408;12.536;2024-01-15T07:14:47;9.83;;;1.87;;
51664;SDS011;37751;52.408;12.536;2024-01-15T07:17:17;11.33;;;1.50;;
51664;SDS011;37751;52.408;12.536;2024-01-15T07:19:48;7.53;;;1.57;;
51664;SDS011;37751;52.408;12.536;2024-01-15T07:22:19;9.03;;;1.90;;
51664;SDS011;37751;52.408;12.536;2024-01-15T07:24:52;10.47;;;2.30;;
51664;SDS011;37751;52.408;12.536;2024-01-15T07:27:26;13.00;;;2.30;;
51664;SDS011;37751;52.408;12.536;2024-01-15T07:29:57;9.20;;;1.57;;
51664;SDS011;37751;52.408;12.536;2024-01-15T07:32:29;9.50;;;1.90;;
51664;SDS011;37751;52.408;12.536;2024-01-15T07:35:00;9.97;;;1.87;;
51664;SDS011;37751;52.408;12.536;2024-01-15T07:37:30;14.50;;;2.03;;
51664;SDS011;37751;52.408;12.536;2024-01-15T07:40:01;7.53;;;1.90;;
51664;SDS011;37751;52.408;12.536;2024-01-15T07:42:36;12.07;;;1.53;;
51664;SDS011;37751;52.408;12.536;2024-01-15T07:45:10;7.60;;;1.50;;
51664;SDS011;37751;52.408;12.536;2024-01-15T07:47:41;8.73;;;2.00;;
51664;SDS011;37751;52.408;12.536;2024-01-15T07:50:12;3.97;;;1.50;;
51664;SDS011;37751;52.408;12.536;2024-01-15T07:52:43;11.73;;;1.67;;
51664;SDS011;37751;52.408;12.536;2024-01-15T07:55:14;13.83;;;1.53;;
51664;SDS011;37751;52.408;12.536;2024-01-15T07:57:47;9.93;;;1.80;;
51664;SDS011;37751;52.408;12.536;2024-01-15T08:00:32;7.13;;;2.20;;
51664;SDS011;37751;52.408;12.536;2024-01-15T08:03:03;14.47;;;2.27;;
51664;SDS011;37751;52.408;12.536;2024-01-15T08:05:34;8.80;;;1.47;;
51664;SDS011;37751;52.408;12.536;2024-01-15T08:08:05;5.23;;;0.90;;
51664;SDS011;37751;52.408;12.536;2024-01-15T08:10:36;8.10;;;1.93;;
51664;SDS011;37751;52.408;12.536;2024-01-15T08:13:10;15.97;;;3.37;;
51664;SDS011;37751;52.408;12.536;2024-01-15T08:15:40;10.97;;;1.43;;
51664;SDS011;37751;52.408;12.536;2024-01-15T08:18:12;9.07;;;1.60;;
51664;SDS011;37751;52.408;12.536;2024-01-15T08:20:43;8.37;;;1.37;;
51664;SDS011;37751;52.408;12.536;2024-01-15T08:23:16;6.20;;;2.03;;
51664;SDS011;37751;52.408;12.536;2024-01-15T08:25:47;10.53;;;1.97;;
51664;SDS011;37751;52.408;12.536;2024-01-15T08:28:22;7.57;;;1.23;;
51664;SDS011;37751;52.408;12.536;2024-01-15T08:30:53;5.33;;;1.70;;
51664;SDS011;37751;52.408;12.536;2024-01-15T08:33:23;9.87;;;2.13;;
51664;SDS011;37751;52.408;12.536;2024-01-15T08:35:54;9.50;;;2.33;;
51664;SDS011;37751;52.408;12.536;2024-01-15T08:38:25;12.47;;;2.67;;
51664;SDS011;37751;52.408;12.536;2024-01-15T08:40:56;4.83;;;1.50;;
51664;SDS011;37751;52.408;12.536;2024-01-15T08:43:30;9.37;;;2.03;;
51664;SDS011;37751;52.408;12.536;2024-01-15T08:46:01;5.83;;;1.77;;
51664;SDS011;37751;52.408;12.536;2024-01-15T08:48:32;8.10;;;1.37;;
51664;SDS011;37751;52.408;12.536;2024-01-15T08:51:04;6.33;;;1.73;;
51664;SDS011;37751;52.408;12.536;2024-01-15T08:53:35;7.87;;;2.30;;
51664;SDS011;37751;52.408;12.536;2024-01-15T08:56:06;6.23;;;1.73;;
51664;SDS011;37751;52.408;12.536;2024-01-15T08:58:40;3.70;;;0.87;;
51664;SDS011;37751;52.408;12.536;2024-01-15T09:01:13;8.13;;;2.13;;
51664;SDS011;37751;52.408;12.536;2024-01-15T09:03:44;4.17;;;1.70;;
51664;SDS011;37751;52.408;12.536;2024-01-15T09:06:15;5.50;;;1.60;;
51664;SDS011;37751;52.408;12.536;2024-01-15T09:08:47;1.30;;;1.03;;
51664;SDS011;37751;52.408;12.536;2024-01-15T09:11:18;5.20;;;1.50;;
51664;SDS011;37751;52.408;12.536;2024-01-15T09:13:51;9.70;;;1.83;;
51664;SDS011;37751;52.408;12.536;2024-01-15T09:16:22;6.97;;;2.40;;
51664;SDS011;37751;52.408;12.536;2024-01-15T09:18:53;5.80;;;1.10;;
51664;SDS011;37751;52.408;12.536;2024-01-15T09:21:24;3.73;;;1.63;;
51664;SDS011;37751;52.408;12.536;2024-01-15T09:23:55;3.43;;;1.40;;
51664;SDS011;37751;52.408;12.536;2024-01-15T09:26:25;4.47;;;1.23;;
51664;SDS011;37751;52.408;12.536;2024-01-15T09:28:59;10.57;;;1.97;;
51664;SDS011;37751;52.408;12.536;2024-01-15T09:31:31;4.93;;;1.53;;
51664;SDS011;37751;52.408;12.536;2024-01-15T09:34:02;7.23;;;1.60;;
51664;SDS011;37751;52.408;12.536;2024-01-15T09:36:37;5.97;;;1.70;;
51664;SDS011;37751;52.408;12.536;2024-01-15T09:39:09;6.80;;;1.70;;
51664;SDS011;37751;52.408;12.536;2024-01-15T09:41:40;6.10;;;1.60;;
51664;SDS011;37751;52.408;12.536;2024-01-15T09:44:14;6.77;;;1.57;;
51664;SDS011;37751;52.408;12.536;2024-01-15T09:46:46;9.13;;;2.00;;
51664;SDS011;37751;52.408;12.536;2024-01-15T09:49:17;6.93;;;1.60;;
51664;SDS011;37751;52.408;12.536;2024-01-15T09:51:48;8.10;;;1.90;;
51664;SDS011;37751;52.408;12.536;2024-01-15T09:54:31;7.93;;;2.33;;
51664;SDS011;37751;52.408;12.536;2024-01-15T09:57:03;5.10;;;1.17;;
51664;SDS011;37751;52.408;12.536;2024-01-15T09:59:37;6.93;;;1.70;;
51664;SDS011;37751;52.408;12.536;2024-01-15T10:02:10;10.13;;;1.70;;
51664;SDS011;37751;52.408;12.536;2024-01-15T10:04:45;4.20;;;1.47;;
51664;SDS011;37751;52.408;12.536;2024-01-15T10:07:16;2.80;;;1.40;;
51664;SDS011;37751;52.408;12.536;2024-01-15T10:09:47;3.73;;;1.40;;
51664;SDS011;37751;52.408;12.536;2024-01-15T10:12:18;6.53;;;1.27;;
51664;SDS011;37751;52.408;12.536;2024-01-15T10:14:53;5.53;;;1.13;;
51664;SDS011;37751;52.408;12.536;2024-01-15T10:17:24;2.10;;;0.70;;
51664;SDS011;37751;52.408;12.536;2024-01-15T10:19:55;4.60;;;1.30;;
51664;SDS011;37751;52.408;12.536;2024-01-15T10:22:26;6.00;;;1.30;;
51664;SDS011;37751;52.408;12.536;2024-01-15T10:24:57;4.40;;;1.10;;
51664;SDS011;37751;52.408;12.536;2024-01-15T10:27:28;5.20;;;1.50;;
51664;SDS011;37751;52.408;12.536;2024-01-15T10:30:02;6.07;;;1.77;;
51664;SDS011;37751;52.408;12.536;2024-01-15T10:32:33;8.70;;;1.83;;
51664;SDS011;37751;52.408;12.536;2024-01-15T10:35:04;4.97;;;1.80;;
51664;SDS011;37751;52.408;12.536;2024-01-15T10:37:37;3.83;;;1.60;;
51664;SDS011;37751;52.408;12.536;2024-01-15T10:40:08;5.70;;;1.80;;
51664;SDS011;37751;52.408;12.536;2024-01-15T10:42:39;5.80;;;2.10;;
51664;SDS011;37751;52.408;12.536;2024-01-15T10:45:13;5.07;;;1.87;;
51664;SDS011;37751;52.408;12.536;2024-01-15T10:47:44;2.77;;;1.80;;
51664;SDS011;37751;52.408;12.536;2024-01-15T10:50:16;10.43;;;3.20;;
51664;SDS011;37751;52.408;12.536;2024-01-15T10:52:47;11.90;;;2.87;;
51664;SDS011;37751;52.408;12.536;2024-01-15T10:55:19;6.83;;;2.30;;
51664;SDS011;37751;52.408;12.536;2024-01-15T10:57:51;4.83;;;2.77;;
51664;SDS011;37751;52.408;12.536;2024-01-15T11:00:26;9.60;;;3.07;;
51664;SDS011;37751;52.408;12.536;2024-01-15T11:02:58;7.63;;;3.27;;
51664;SDS011;37751;52.408;12.536;2024-01-15T11:05:33;12.93;;;3.73;;
51664;SDS011;37751;52.408;12.536;2024-01-15T11:08:06;10.17;;;4.50;;
51664;SDS011;37751;52.408;12.536;2024-01-15T11:10:38;11.60;;;3.93;;
51664;SDS011;37751;52.408;12.536;2024-01-15T11:13:14;5.77;;;2.40;;
51664;SDS011;37751;52.408;12.536;2024-01-15T11:15:58;7.20;;;3.10;;
51664;SDS011;37751;52.408;12.536;2024-01-15T11:18:30;4.93;;;2.50;;
51664;SDS011;37751;52.408;12.536;2024-01-15T11:21:20;3.80;;;2.20;;
51664;SDS011;37751;52.408;12.536;2024-01-15T11:23:53;8.83;;;2.20;;
51664;SDS011;37751;52.408;12.536;2024-01-15T11:26:29;4.43;;;1.23;;
51664;SDS011;37751;52.408;12.536;2024-01-15T11:29:02;8.23;;;2.43;;
51664;SDS011;37751;52.408;12.536;2024-01-15T11:37:22;3.67;;;1.73;;
51664;SDS011;37751;52.408;12.536;2024-01-15T11:39:53;4.67;;;2.63;;
51664;SDS011;37751;52.408;12.536;2024-01-15T11:42:25;4.23;;;2.07;;
51664;SDS011;37751;52.408;12.536;2024-01-15T11:44:56;4.00;;;2.13;;
51664;SDS011;37751;52.408;12.536;2024-01-15T11:47:55;2.03;;;1.20;;
51664;SDS011;37751;52.408;12.536;2024-01-15T11:50:40;2.70;;;1.83;;
51664;SDS011;37751;52.408;12.536;2024-01-15T11:53:27;2.63;;;1.70;;
51664;SDS011;37751;52.408;12.536;2024-01-15T11:56:05;3.67;;;1.90;;
51664;SDS011;37751;52.408;12.536;2024-01-15T11:58:42;6.63;;;1.90;;
51664;SDS011;37751;52.408;12.536;2024-01-15T12:01:12;2.80;;;1.90;;
51664;SDS011;37751;52.408;12.536;2024-01-15T12:03:47;5.17;;;1.20;;
51664;SDS011;37751;52.408;12.536;2024-01-15T12:06:21;4.97;;;2.77;;
51664;SDS011;37751;52.408;12.536;2024-01-15T12:08:55;4.13;;;2.50;;
51664;SDS011;37751;52.408;12.536;2024-01-15T12:11:36;9.67;;;3.73;;
51664;SDS011;37751;52.408;12.536;2024-01-15T12:14:16;6.87;;;2.43;;
51664;SDS011;37751;52.408;12.536;2024-01-15T12:16:47;3.63;;;1.87;;
51664;SDS011;37751;52.408;12.536;2024-01-15T12:19:21;2.63;;;2.17;;
51664;SDS011;37751;52.408;12.536;2024-01-15T12:21:52;7.33;;;3.00;;
51664;SDS011;37751;52.408;12.536;2024-01-15T12:24:22;5.93;;;3.57;;
51664;SDS011;37751;52.408;12.536;2024-01-15T12:26:53;6.87;;;3.70;;
51664;SDS011;37751;52.408;12.536;2024-01-15T12:29:24;7.97;;;3.33;;
51664;SDS011;37751;52.408;12.536;2024-01-15T12:31:55;8.37;;;3.30;;
51664;SDS011;37751;52.408;12.536;2024-01-15T12:34:31;9.20;;;3.60;;
51664;SDS011;37751;52.408;12.536;2024-01-15T12:37:02;7.57;;;3.53;;
51664;SDS011;37751;52.408;12.536;2024-01-15T12:39:33;9.67;;;3.13;;
51664;SDS011;37751;52.408;12.536;2024-01-15T12:42:05;11.67;;;4.43;;
51664;SDS011;37751;52.408;12.536;2024-01-15T12:44:35;8.03;;;3.33;;
51664;SDS011;37751;52.408;12.536;2024-01-15T12:47:06;15.87;;;4.33;;
51664;SDS011;37751;52.408;12.536;2024-01-15T12:49:40;14.87;;;3.30;;
51664;SDS011;37751;52.408;12.536;2024-01-15T12:52:11;7.90;;;3.13;;
51664;SDS011;37751;52.408;12.536;2024-01-15T12:54:41;13.97;;;3.53;;
51664;SDS011;37751;52.408;12.536;2024-01-15T12:57:12;7.20;;;3.10;;
51664;SDS011;37751;52.408;12.536;2024-01-15T12:59:43;7.87;;;3.23;;
51664;SDS011;37751;52.408;12.536;2024-01-15T13:02:14;10.80;;;3.60;;
51664;SDS011;37751;52.408;12.536;2024-01-15T13:04:47;6.07;;;3.37;;
51664;SDS011;37751;52.408;12.536;2024-01-15T13:07:18;9.73;;;3.63;;
51664;SDS011;37751;52.408;12.536;2024-01-15T13:09:49;4.60;;;2.40;;
51664;SDS011;37751;52.408;12.536;2024-01-15T13:12:21;10.90;;;3.50;;
51664;SDS011;37751;52.408;12.536;2024-01-15T13:14:49;13.23;;;3.13;;
51664;SDS011;37751;52.408;12.536;2024-01-15T13:17:20;9.07;;;3.20;;
51664;SDS011;37751;52.408;12.536;2024-01-15T13:19:53;14.00;;;3.13;;
51664;SDS011;37751;52.408;12.536;2024-01-15T13:22:24;9.63;;;3.07;;
51664;SDS011;37751;52.408;12.536;2024-01-15T13:24:59;5.37;;;2.60;;
51664;SDS011;37751;52.408;12.536;2024-01-15T13:27:31;11.73;;;3.13;;
51664;SDS011;37751;52.408;12.536;2024-01-15T13:30:03;19.97;;;3.33;;
51664;SDS011;37751;52.408;12.536;2024-01-15T13:32:35;12.67;;;3.10;;
51664;SDS011;37751;52.408;12.536;2024-01-15T13:35:09;11.17;;;3.67;;
51664;SDS011;37751;52.408;12.536;2024-01-15T13:37:40;11.77;;;2.37;;
51664;SDS011;37751;52.408;12.536;2024-01-15T13:40:11;11.67;;;3.00;;
51664;SDS011;37751;52.408;12.536;2024-01-15T13:42:44;9.83;;;3.07;;
51664;SDS011;37751;52.408;12.536;2024-01-15T13:45:16;11.30;;;3.37;;
51664;SDS011;37751;52.408;12.536;2024-01-15T13:47:47;12.60;;;3.90;;
51664;SDS011;37751;52.408;12.536;2024-01-15T13:50:21;13.03;;;2.60;;
51664;SDS011;37751;52.408;12.536;2024-01-15T13:52:52;6.53;;;2.60;;
51664;SDS011;37751;52.408;12.536;2024-01-15T13:55:23;4.67;;;2.53;;
51664;SDS011;37751;52.408;12.536;2024-01-15T13:57:54;7.07;;;2.83;;
51664;SDS011;37751;52.408;12.536;2024-01-15T14:00:24;13.10;;;4.00;;
51664;SDS011;37751;52.408;12.536;2024-01-15T14:02:55;11.40;;;3.00;;
51664;SDS011;37751;52.408;12.536;2024-01-15T14:05:29;6.33;;;2.10;;
51664;SDS011;37751;52.408;12.536;2024-01-15T14:08:00;4.03;;;1.90;;
51664;SDS011;37751;52.408;12.536;2024-01-15T14:10:30;4.43;;;1.80;;
51664;SDS011;37751;52.408;12.536;2024-01-15T14:13:01;5.53;;;2.13;;
51664;SDS011;37751;52.408;12.536;2024-01-15T14:15:33;4.73;;;1.50;;
51664;SDS011;37751;52.408;12.536;2024-01-15T14:18:04;5.30;;;1.80;;
51664;SDS011;37751;52.408;12.536;2024-01-15T14:20:38;11.07;;;2.10;;
51664;SDS011;37751;52.408;12.536;2024-01-15T14:23:09;4.00;;;1.30;;
51664;SDS011;37751;52.408;12.536;2024-01-15T14:25:40;5.30;;;1.63;;
51664;SDS011;37751;52.408;12.536;2024-01-15T14:28:11;10.20;;;2.77;;
51664;SDS011;37751;52.408;12.536;2024-01-15T14:30:42;6.47;;;1.73;;
51664;SDS011;37751;52.408;12.536;2024-01-15T14:33:13;5.67;;;2.00;;
51664;SDS011;37751;52.408;12.536;2024-01-15T14:35:47;5.13;;;2.00;;
51664;SDS011;37751;52.408;12.536;2024-01-15T14:38:18;5.20;;;2.10;;
51664;SDS011;37751;52.408;12.536;2024-01-15T14:40:49;8.97;;;3.83;;
51664;SDS011;37751;52.408;12.536;2024-01-15T14:43:22;6.27;;;1.83;;
51664;SDS011;37751;52.408;12.536;2024-01-15T14:45:53;9.57;;;2.47;;
51664;SDS011;37751;52.408;12.536;2024-01-15T14:48:24;6.37;;;2.33;;
51664;SDS011;37751;52.408;12.536;2024-01-15T14:50:58;7.13;;;3.63;;
51664;SDS011;37751;52.408;12.536;2024-01-15T14:53:30;4.97;;;2.70;;
51664;SDS011;37751;52.408;12.536;2024-01-15T14:56:01;12.17;;;3.13;;
51664;SDS011;37751;52.408;12.536;2024-01-15T14:58:33;12.70;;;3.37;;
51664;SDS011;37751;52.408;12.536;2024-01-15T15:01:03;3.80;;;1.63;;
51664;SDS011;37751;52.408;12.536;2024-01-15T15:03:37;8.87;;;2.47;;
51664;SDS011;37751;52.408;12.536;2024-01-15T15:06:11;6.50;;;2.30;;
51664;SDS011;37751;52.408;12.536;2024-01-15T15:08:46;9.17;;;3.60;;
51664;SDS011;37751;52.408;12.536;2024-01-15T15:11:18;9.70;;;3.50;;
51664;SDS011;37751;52.408;12.536;2024-01-15T15:13:50;6.60;;;3.03;;